Time;durP1;ratioP1;P1;durP2;ratioP2;P2;SDS_P1;SDS_P2;PMS_P1;PMS_P2;Temp;Humidity;BMP_temperature;BMP_pressure;BME280_temperature;BME280_humidity;BME280_pressure;Samples;Min_cycle;Max_cycle;Signal;HPM_P1;HPM_P2
2023/10/26 00:00:30;;;;;;;32.47;24.67;;;9.70;99.90;;;;;;4947497;28;20039;-74
2023/10/26 00:02:56;;;;;;;29.67;23.60;;;9.70;99.90;;;;;;4952678;28;20035;-74
2023/10/26 00:05:21;;;;;;;33.33;24.40;;;9.70;99.90;;;;;;4951532;28;20039;-75
2023/10/26 00:07:47;;;;;;;36.28;25.00;;;9.70;99.90;;;;;;4968247;28;20634;-74
2023/10/26 00:10:13;;;;;;;35.13;26.63;;;9.70;99.90;;;;;;4967551;28;20050;-74
2023/10/26 00:12:39;;;;;;;36.35;25.55;;;9.70;99.90;;;;;;4966811;28;20411;-74
2023/10/26 00:15:05;;;;;;;38.97;25.02;;;9.70;99.90;;;;;;4952519;28;20047;-74
2023/10/26 00:17:31;;;;;;;31.83;25.13;;;9.60;99.90;;;;;;4949438;28;20086;-74
2023/10/26 00:19:57;;;;;;;35.25;25.48;;;9.60;99.90;;;;;;4948791;28;20066;-74
2023/10/26 00:22:23;;;;;;;38.22;26.52;;;9.60;99.90;;;;;;4967222;28;20031;-75
2023/10/26 00:24:50;;;;;;;35.85;25.25;;;9.60;99.90;;;;;;4949804;28;20035;-74
2023/10/26 00:27:16;;;;;;;35.95;26.02;;;9.60;99.90;;;;;;4967512;28;20568;-74
2023/10/26 00:29:41;;;;;;;40.90;27.30;;;9.60;99.90;;;;;;4952295;28;20039;-75
2023/10/26 00:32:08;;;;;;;38.55;27.40;;;9.60;99.90;;;;;;4932059;28;20062;-74
2023/10/26 00:34:34;;;;;;;37.50;28.02;;;9.60;99.90;;;;;;4967526;28;20054;-74
2023/10/26 00:37:00;;;;;;;45.30;29.80;;;9.60;99.90;;;;;;4966395;28;20160;-74
2023/10/26 00:39:26;;;;;;;48.10;32.80;;;9.60;99.90;;;;;;4935717;28;20429;-75
2023/10/26 00:41:53;;;;;;;42.55;30.55;;;9.60;99.90;;;;;;4974710;28;20166;-74
2023/10/26 00:44:22;;;;;;;52.85;35.10;;;9.60;99.90;;;;;;4971216;28;20078;-74
2023/10/26 00:46:49;;;;;;;44.67;33.10;;;9.60;99.90;;;;;;4967429;28;20042;-74
2023/10/26 00:49:15;;;;;;;53.80;35.28;;;9.60;99.90;;;;;;4967304;28;20043;-74
2023/10/26 00:51:47;;;;;;;52.63;36.15;;;9.60;99.90;;;;;;4966807;28;20125;-74
2023/10/26 00:54:14;;;;;;;59.67;37.60;;;9.60;99.90;;;;;;4956642;28;20050;-75
2023/10/26 00:56:41;;;;;;;53.05;37.05;;;9.60;99.90;;;;;;4968389;28;20053;-74
2023/10/26 00:59:07;;;;;;;62.67;39.95;;;9.60;99.90;;;;;;4954879;28;20078;-74
2023/10/26 01:01:34;;;;;;;56.85;38.42;;;9.60;99.90;;;;;;4967190;28;20068;-75
2023/10/26 01:04:01;;;;;;;61.88;39.97;;;9.60;99.90;;;;;;4957494;28;20329;-75
2023/10/26 01:06:26;;;;;;;56.45;38.75;;;9.60;99.90;;;;;;4971000;28;20045;-74
2023/10/26 01:08:53;;;;;;;58.33;40.13;;;9.60;99.90;;;;;;4955355;28;20039;-74
2023/10/26 01:11:20;;;;;;;61.83;40.60;;;9.60;99.90;;;;;;4972314;28;20463;-74
2023/10/26 01:13:47;;;;;;;61.58;38.58;;;9.60;99.90;;;;;;4972474;28;20555;-74
2023/10/26 01:16:13;;;;;;;56.55;38.97;;;9.60;99.90;;;;;;4970712;28;20047;-74
2023/10/26 01:18:38;;;;;;;57.90;40.55;;;9.60;99.90;;;;;;4972506;28;20093;-74
2023/10/26 01:21:04;;;;;;;63.15;39.58;;;9.60;99.90;;;;;;4985084;28;20047;-74
2023/10/26 01:23:30;;;;;;;70.72;43.60;;;9.60;99.90;;;;;;4967479;28;20118;-74
2023/10/26 01:25:58;;;;;;;69.05;43.97;;;9.60;99.90;;;;;;4970908;28;20121;-75
2023/10/26 01:28:25;;;;;;;70.35;44.17;;;9.60;99.90;;;;;;4970871;28;20034;-74
2023/10/26 01:30:52;;;;;;;62.83;41.88;;;9.60;99.90;;;;;;4971286;28;20101;-74
2023/10/26 01:33:18;;;;;;;70.65;44.05;;;9.60;99.90;;;;;;4970489;28;20046;-75
2023/10/26 01:35:45;;;;;;;61.20;42.10;;;9.60;99.90;;;;;;4961471;28;20452;-74
2023/10/26 01:38:15;;;;;;;57.78;40.08;;;9.60;99.90;;;;;;4968923;28;20480;-74
2023/10/26 01:40:41;;;;;;;61.20;41.80;;;9.60;99.90;;;;;;4967923;28;20035;-75
2023/10/26 01:43:06;;;;;;;58.05;41.03;;;9.60;99.90;;;;;;4969655;28;20035;-74
2023/10/26 01:45:32;;;;;;;57.67;41.03;;;9.60;99.90;;;;;;4954928;28;20520;-74
2023/10/26 01:48:04;;;;;;;55.85;39.58;;;9.60;99.90;;;;;;4970192;28;20038;-74
2023/10/26 01:50:32;;;;;;;60.67;41.45;;;9.60;99.90;;;;;;4967676;28;20042;-74
2023/10/26 01:52:57;;;;;;;60.67;43.55;;;9.60;99.90;;;;;;4968735;28;20043;-74
2023/10/26 01:55:23;;;;;;;63.08;43.85;;;9.60;99.90;;;;;;4969283;28;20077;-75
2023/10/26 01:57:49;;;;;;;73.68;48.65;;;9.60;99.90;;;;;;4954404;28;20076;-74
2023/10/26 02:00:14;;;;;;;71.78;45.40;;;9.60;99.90;;;;;;4969670;28;20129;-74
2023/10/26 02:02:41;;;;;;;79.10;48.67;;;9.60;99.90;;;;;;4954081;28;20067;-75
2023/10/26 02:05:07;;;;;;;84.28;50.42;;;9.60;99.90;;;;;;4967290;28;20496;-74
2023/10/26 02:07:33;;;;;;;80.20;50.05;;;9.60;99.90;;;;;;4955476;28;20050;-74
2023/10/26 02:09:59;;;;;;;88.28;51.88;;;9.60;99.90;;;;;;4954750;28;20038;-74
2023/10/26 02:12:25;;;;;;;96.22;54.33;;;9.60;99.90;;;;;;4954020;28;20078;-74
2023/10/26 02:14:51;;;;;;;89.72;53.08;;;9.60;99.90;;;;;;4948115;28;20086;-74
2023/10/26 02:17:16;;;;;;;108.28;57.05;;;9.60;99.90;;;;;;4954176;28;20066;-74
2023/10/26 02:19:42;;;;;;;90.40;52.22;;;9.60;99.90;;;;;;4944710;28;20039;-74
2023/10/26 02:22:08;;;;;;;94.70;54.17;;;9.60;99.90;;;;;;4953825;28;20035;-74
2023/10/26 02:24:33;;;;;;;88.35;51.85;;;9.60;99.90;;;;;;4968371;28;20142;-74
2023/10/26 02:26:59;;;;;;;89.47;53.60;;;9.60;99.90;;;;;;4967396;28;20043;-74
2023/10/26 02:29:25;;;;;;;88.22;52.30;;;9.70;99.90;;;;;;4969024;28;20043;-75
2023/10/26 02:31:50;;;;;;;95.75;55.22;;;9.60;99.90;;;;;;4968693;28;20051;-74
2023/10/26 02:34:16;;;;;;;96.50;54.08;;;9.60;99.90;;;;;;4967924;28;20047;-74
2023/10/26 02:36:42;;;;;;;93.28;53.03;;;9.70;99.90;;;;;;4964105;28;20077;-74
2023/10/26 02:39:07;;;;;;;105.07;56.03;;;9.60;99.90;;;;;;4967051;28;20104;-74
2023/10/26 02:41:33;;;;;;;97.90;55.72;;;9.60;99.90;;;;;;4952731;28;20053;-74
2023/10/26 02:43:59;;;;;;;93.63;54.40;;;9.50;99.90;;;;;;4957752;28;20146;-74
2023/10/26 02:46:24;;;;;;;89.38;53.10;;;9.50;99.90;;;;;;4946290;28;20042;-74
2023/10/26 02:48:50;;;;;;;90.22;52.55;;;9.50;99.90;;;;;;4961199;28;20050;-74
2023/10/26 02:51:16;;;;;;;89.55;52.25;;;9.50;99.90;;;;;;4951560;28;20122;-74
2023/10/26 02:53:42;;;;;;;85.72;51.40;;;9.60;99.90;;;;;;4958704;28;20038;-75
2023/10/26 02:56:08;;;;;;;86.30;52.17;;;9.50;99.90;;;;;;4958740;28;20531;-74
2023/10/26 02:58:34;;;;;;;95.10;53.13;;;9.50;99.90;;;;;;4969085;28;20035;-74
2023/10/26 03:00:59;;;;;;;88.95;51.72;;;9.50;99.90;;;;;;4968190;28;20046;-74
2023/10/26 03:03:25;;;;;;;89.43;52.13;;;9.50;99.90;;;;;;4969169;28;20039;-74
2023/10/26 03:05:51;;;;;;;86.50;52.03;;;9.50;99.90;;;;;;4967921;28;20031;-74
2023/10/26 03:08:17;;;;;;;94.43;54.33;;;9.50;99.90;;;;;;4968673;28;20376;-74
2023/10/26 03:10:43;;;;;;;101.38;55.10;;;9.50;99.90;;;;;;4951815;28;20526;-74
2023/10/26 03:13:10;;;;;;;108.00;57.17;;;9.50;99.90;;;;;;4967563;28;20052;-74
2023/10/26 03:15:35;;;;;;;111.97;56.38;;;9.50;99.90;;;;;;4969315;28;20125;-74
2023/10/26 03:18:01;;;;;;;106.30;55.53;;;9.50;99.90;;;;;;4935558;28;20031;-74
2023/10/26 03:20:27;;;;;;;111.80;58.47;;;9.50;99.90;;;;;;4964088;28;20070;-74
2023/10/26 03:22:53;;;;;;;111.63;58.88;;;9.50;99.90;;;;;;4968628;28;20039;-74
2023/10/26 03:25:18;;;;;;;100.65;54.17;;;9.50;99.90;;;;;;4934546;28;20046;-75
2023/10/26 03:27:44;;;;;;;101.60;55.50;;;9.50;99.90;;;;;;4949786;28;20085;-74
2023/10/26 03:30:10;;;;;;;99.25;52.55;;;9.50;99.90;;;;;;4958226;28;20113;-74
2023/10/26 03:32:36;;;;;;;94.25;54.05;;;9.50;99.90;;;;;;4968310;28;20035;-74
2023/10/26 03:35:02;;;;;;;90.63;53.00;;;9.60;99.90;;;;;;4952215;28;20093;-74
2023/10/26 03:37:28;;;;;;;98.90;53.25;;;9.50;99.90;;;;;;4954542;28;20440;-74
2023/10/26 03:39:54;;;;;;;94.50;51.03;;;9.40;99.90;;;;;;4967656;28;20064;-74
2023/10/26 03:42:20;;;;;;;110.45;56.25;;;9.40;99.90;;;;;;4950679;28;20247;-75
2023/10/26 03:44:46;;;;;;;98.60;54.63;;;9.40;99.90;;;;;;4968211;28;20027;-75
2023/10/26 03:47:11;;;;;;;105.32;54.65;;;9.50;99.90;;;;;;4967768;28;20065;-74
2023/10/26 03:49:37;;;;;;;98.43;52.80;;;9.40;99.90;;;;;;4971768;28;20032;-75
2023/10/26 03:52:03;;;;;;;105.22;56.03;;;9.40;99.90;;;;;;4968472;28;20574;-74
2023/10/26 03:54:29;;;;;;;111.43;55.53;;;9.40;99.90;;;;;;4933222;28;20077;-74
2023/10/26 03:56:55;;;;;;;143.77;63.30;;;9.40;99.90;;;;;;4982207;28;20075;-74
2023/10/26 03:59:20;;;;;;;110.40;55.72;;;9.40;99.90;;;;;;4967360;28;20039;-74
2023/10/26 04:01:46;;;;;;;119.93;57.78;;;9.30;99.90;;;;;;4938158;28;20396;-74
2023/10/26 04:04:12;;;;;;;105.28;53.85;;;9.30;99.90;;;;;;4937291;28;20444;-74
2023/10/26 04:06:37;;;;;;;99.40;54.83;;;9.40;99.90;;;;;;4967184;28;20134;-74
2023/10/26 04:09:03;;;;;;;105.63;54.30;;;9.40;99.90;;;;;;4950898;28;20034;-75
2023/10/26 04:11:29;;;;;;;103.15;53.30;;;9.30;99.90;;;;;;4951603;28;20046;-74
2023/10/26 04:13:55;;;;;;;100.68;54.72;;;9.40;99.90;;;;;;4948878;28;20066;-75
2023/10/26 04:16:21;;;;;;;107.72;54.97;;;9.40;99.90;;;;;;4951529;28;20050;-75
2023/10/26 04:18:47;;;;;;;107.03;54.72;;;9.30;99.90;;;;;;4952670;28;20455;-74
2023/10/26 04:21:12;;;;;;;104.53;54.83;;;9.30;99.90;;;;;;4949238;28;20035;-75
2023/10/26 04:23:38;;;;;;;99.10;54.47;;;9.30;99.90;;;;;;4952748;28;20094;-74
2023/10/26 04:26:05;;;;;;;94.78;53.60;;;9.30;99.90;;;;;;4972701;28;20122;-75
2023/10/26 04:28:30;;;;;;;98.28;53.20;;;9.30;99.90;;;;;;4956408;28;20047;-75
2023/10/26 04:30:56;;;;;;;107.55;54.17;;;9.40;99.90;;;;;;4961571;28;20043;-74
2023/10/26 04:33:22;;;;;;;110.80;56.67;;;9.40;99.90;;;;;;4968590;28;20046;-74
2023/10/26 04:35:51;;;;;;;105.47;54.38;;;9.40;99.90;;;;;;4959490;28;20042;-75
2023/10/26 04:38:17;;;;;;;119.28;59.38;;;9.40;99.90;;;;;;4972631;28;20054;-75
2023/10/26 04:40:43;;;;;;;101.90;53.95;;;9.40;99.90;;;;;;4962354;28;20038;-74
2023/10/26 04:43:09;;;;;;;107.75;53.88;;;9.30;99.90;;;;;;4972553;28;20039;-74
2023/10/26 04:45:35;;;;;;;98.43;53.67;;;9.40;99.90;;;;;;4971064;28;20046;-74
2023/10/26 04:48:02;;;;;;;109.68;54.53;;;9.40;99.90;;;;;;4971083;28;20046;-75
2023/10/26 04:50:30;;;;;;;102.35;55.47;;;9.30;99.90;;;;;;4969930;28;20126;-75
2023/10/26 04:52:55;;;;;;;94.40;52.80;;;9.30;99.90;;;;;;4981437;28;20065;-74
2023/10/26 04:55:21;;;;;;;107.57;55.80;;;9.40;99.90;;;;;;4969490;28;20042;-74
2023/10/26 04:57:47;;;;;;;110.97;55.85;;;9.30;99.90;;;;;;4969301;28;20042;-74
2023/10/26 05:00:13;;;;;;;106.13;54.05;;;9.30;99.90;;;;;;4952903;28;20050;-75
2023/10/26 05:02:40;;;;;;;104.88;54.92;;;9.30;99.90;;;;;;4968487;28;20037;-74
2023/10/26 05:05:07;;;;;;;109.18;56.33;;;9.30;99.90;;;;;;4970601;28;20039;-74
2023/10/26 05:07:33;;;;;;;104.22;55.20;;;9.30;99.90;;;;;;4969660;28;20035;-75
2023/10/26 05:10:00;;;;;;;105.38;55.40;;;9.30;99.90;;;;;;4970731;28;20128;-74
2023/10/26 05:12:26;;;;;;;102.15;53.13;;;9.30;99.90;;;;;;4942036;28;20035;-75
2023/10/26 05:14:51;;;;;;;96.70;53.38;;;9.30;99.90;;;;;;4969654;28;20062;-74
2023/10/26 05:17:17;;;;;;;118.43;58.95;;;9.30;99.90;;;;;;4970522;28;20039;-74
2023/10/26 05:19:43;;;;;;;108.13;55.05;;;9.30;99.90;;;;;;4968201;28;20050;-74
2023/10/26 05:22:09;;;;;;;126.47;59.17;;;9.30;99.90;;;;;;4969830;28;20093;-74
2023/10/26 05:24:37;;;;;;;109.32;57.00;;;9.30;99.90;;;;;;4956445;28;20038;-74
2023/10/26 05:27:03;;;;;;;138.70;61.38;;;9.30;99.90;;;;;;4970631;28;20480;-74
2023/10/26 05:29:29;;;;;;;115.15;57.55;;;9.30;99.90;;;;;;4970547;28;20047;-74
2023/10/26 05:31:55;;;;;;;110.65;55.03;;;9.20;99.90;;;;;;4954584;28;20089;-74
2023/10/26 05:34:24;;;;;;;111.13;56.97;;;9.20;99.90;;;;;;4970078;28;20042;-74
2023/10/26 05:36:49;;;;;;;119.18;59.40;;;9.20;99.90;;;;;;4969784;28;20109;-74
2023/10/26 05:39:15;;;;;;;132.00;60.13;;;9.30;99.90;;;;;;4976033;28;20081;-74
2023/10/26 05:41:42;;;;;;;126.25;58.65;;;9.20;99.90;;;;;;4966906;28;20447;-75
2023/10/26 05:44:07;;;;;;;106.68;55.78;;;9.20;99.90;;;;;;4969849;28;20046;-75
2023/10/26 05:46:34;;;;;;;111.47;56.92;;;9.20;99.90;;;;;;4970017;28;20042;-75
2023/10/26 05:48:59;;;;;;;108.13;57.50;;;9.20;99.90;;;;;;4970464;28;20610;-74
2023/10/26 05:51:25;;;;;;;111.18;55.25;;;9.20;99.90;;;;;;4954153;28;20117;-75
2023/10/26 05:53:51;;;;;;;111.80;55.88;;;9.20;99.90;;;;;;4957179;28;20122;-74
2023/10/26 05:56:16;;;;;;;109.97;56.40;;;9.20;99.90;;;;;;4969188;28;20042;-74
2023/10/26 05:58:43;;;;;;;117.22;57.50;;;9.20;99.90;;;;;;4967764;28;20520;-75
2023/10/26 06:01:09;;;;;;;116.30;56.05;;;9.20;99.90;;;;;;4969250;28;20046;-74
2023/10/26 06:03:35;;;;;;;111.93;55.50;;;9.20;99.90;;;;;;4951078;28;20031;-74
2023/10/26 06:06:04;;;;;;;141.40;60.30;;;9.20;99.90;;;;;;4943614;28;20046;-74
2023/10/26 06:08:29;;;;;;;111.20;54.88;;;9.10;99.90;;;;;;4957919;28;20129;-74
2023/10/26 06:10:55;;;;;;;133.43;58.97;;;9.10;99.90;;;;;;4953938;28;20135;-74
2023/10/26 06:13:21;;;;;;;130.45;56.75;;;9.00;99.90;;;;;;4955115;28;20062;-74
2023/10/26 06:15:46;;;;;;;141.02;60.25;;;9.00;99.90;;;;;;4962850;28;20038;-74
2023/10/26 06:18:12;;;;;;;114.70;55.08;;;9.00;99.90;;;;;;4950458;28;20548;-74
2023/10/26 06:20:38;;;;;;;130.00;58.67;;;9.00;99.90;;;;;;4950577;28;20043;-74
2023/10/26 06:23:04;;;;;;;200.15;68.65;;;8.90;99.90;;;;;;4969222;28;20114;-74
2023/10/26 06:25:38;;;;;;;129.20;56.10;;;8.90;99.90;;;;;;4970067;28;20115;-74
2023/10/26 06:28:04;;;;;;;148.27;61.50;;;8.90;99.90;;;;;;4947870;28;20056;-73
2023/10/26 06:30:31;;;;;;;141.23;59.78;;;8.90;99.90;;;;;;4949129;28;20489;-74
2023/10/26 06:32:59;;;;;;;152.55;61.30;;;8.90;99.90;;;;;;4934687;28;20058;-73
2023/10/26 06:35:25;;;;;;;133.68;57.90;;;8.80;99.90;;;;;;4935567;28;20078;-77
2023/10/26 06:37:50;;;;;;;205.93;68.13;;;8.80;99.90;;;;;;4965804;28;20047;-76
2023/10/26 06:40:16;;;;;;;149.95;60.60;;;8.80;99.90;;;;;;4946658;28;20110;-77
2023/10/26 06:42:42;;;;;;;180.48;67.50;;;8.80;99.90;;;;;;4981300;28;20035;-75
2023/10/26 06:45:08;;;;;;;129.07;56.65;;;8.80;99.90;;;;;;4953788;28;20042;-76
2023/10/26 06:47:34;;;;;;;140.48;57.88;;;8.80;99.90;;;;;;4951359;28;20182;-76
2023/10/26 06:49:59;;;;;;;145.43;59.47;;;8.80;99.90;;;;;;4967829;28;20075;-76
2023/10/26 06:52:25;;;;;;;120.47;56.30;;;8.80;99.90;;;;;;4956971;28;20045;-76
2023/10/26 06:54:51;;;;;;;125.47;59.65;;;8.80;99.90;;;;;;4954075;28;20049;-76
2023/10/26 06:57:17;;;;;;;126.13;60.22;;;8.80;99.90;;;;;;4954226;28;20038;-80
2023/10/26 06:59:42;;;;;;;154.60;64.13;;;8.80;99.90;;;;;;4966717;28;20046;-75
2023/10/26 07:02:10;;;;;;;129.75;59.13;;;8.90;99.90;;;;;;4953170;28;20121;-75
2023/10/26 07:04:36;;;;;;;181.10;69.28;;;8.90;99.90;;;;;;4951803;28;20038;-75
2023/10/26 07:07:02;;;;;;;125.32;58.83;;;8.90;99.90;;;;;;4927763;28;20508;-75
2023/10/26 07:09:29;;;;;;;127.72;60.13;;;8.90;99.90;;;;;;4951614;28;20547;-75
2023/10/26 07:11:55;;;;;;;134.05;60.80;;;9.00;99.90;;;;;;4931364;28;20504;-79
2023/10/26 07:14:21;;;;;;;119.95;58.38;;;9.00;99.90;;;;;;4917807;28;20066;-79
2023/10/26 07:16:46;;;;;;;125.38;60.50;;;9.00;99.90;;;;;;4936034;28;20063;-88
2023/10/26 07:19:12;;;;;;;122.78;58.38;;;9.00;99.90;;;;;;4917407;28;20089;-78
2023/10/26 07:21:37;;;;;;;133.85;60.05;;;9.10;99.90;;;;;;4920800;28;20876;-78
2023/10/26 07:24:04;;;;;;;130.82;60.75;;;9.00;99.90;;;;;;4933620;28;20093;-78
2023/10/26 07:26:29;;;;;;;125.32;58.92;;;9.10;99.90;;;;;;4936231;28;20467;-79
2023/10/26 07:28:57;;;;;;;132.32;59.30;;;9.10;99.90;;;;;;4950361;28;20455;-79
2023/10/26 07:31:23;;;;;;;119.97;58.05;;;9.10;99.90;;;;;;4917395;28;21168;-79
2023/10/26 07:33:49;;;;;;;117.68;56.67;;;9.10;99.90;;;;;;4945108;28;20440;-77
2023/10/26 07:36:15;;;;;;;110.68;55.90;;;9.20;99.90;;;;;;4942277;28;20047;-79
2023/10/26 07:38:41;;;;;;;100.75;53.33;;;9.20;99.90;;;;;;4916176;28;20102;-79
2023/10/26 07:41:08;;;;;;;109.07;55.72;;;9.20;99.90;;;;;;4946998;28;20034;-79
2023/10/26 07:43:37;;;;;;;90.35;50.45;;;9.20;99.90;;;;;;4949057;28;20058;-79
2023/10/26 07:46:03;;;;;;;87.47;50.15;;;9.30;99.90;;;;;;4918714;28;20131;-79
2023/10/26 07:48:32;;;;;;;82.03;47.83;;;9.30;99.90;;;;;;4947709;28;20046;-79
2023/10/26 07:50:58;;;;;;;78.97;45.38;;;9.30;99.90;;;;;;4937132;28;20127;-78
2023/10/26 07:53:24;;;;;;;79.00;46.95;;;9.30;99.90;;;;;;4953539;28;20070;-78
2023/10/26 07:55:56;;;;;;;78.00;46.05;;;9.30;99.90;;;;;;4954522;28;20078;-77
2023/10/26 07:58:22;;;;;;;76.70;47.72;;;9.30;99.90;;;;;;4954623;28;20047;-77
2023/10/26 08:00:47;;;;;;;70.50;44.03;;;9.40;99.90;;;;;;4955186;28;20046;-76
2023/10/26 08:03:13;;;;;;;61.47;42.55;;;9.40;99.90;;;;;;4954099;28;20481;-79
2023/10/26 08:05:39;;;;;;;64.63;42.28;;;9.40;99.90;;;;;;4954666;28;20439;-77
2023/10/26 08:08:04;;;;;;;63.22;41.42;;;9.50;99.90;;;;;;4954031;28;20122;-78
2023/10/26 08:10:35;;;;;;;64.50;41.03;;;9.50;99.90;;;;;;4953663;28;20054;-78
2023/10/26 08:13:00;;;;;;;56.05;39.70;;;9.50;99.90;;;;;;4949289;28;20059;-78
2023/10/26 08:15:26;;;;;;;53.72;37.72;;;9.50;99.90;;;;;;4965406;28;20047;-79
2023/10/26 08:17:52;;;;;;;53.58;37.22;;;9.50;99.90;;;;;;4936766;28;20050;-78
2023/10/26 08:20:17;;;;;;;57.03;38.83;;;9.50;99.90;;;;;;4968602;28;20035;-78
2023/10/26 08:22:43;;;;;;;57.05;38.53;;;9.60;99.90;;;;;;4968625;28;20121;-78
2023/10/26 08:25:09;;;;;;;57.65;37.83;;;9.60;99.90;;;;;;4968143;28;20038;-79
2023/10/26 08:27:35;;;;;;;54.78;36.63;;;9.60;99.90;;;;;;4928691;28;20070;-78
2023/10/26 08:30:03;;;;;;;48.83;34.75;;;9.60;99.90;;;;;;4985093;28;20039;-79
2023/10/26 08:32:29;;;;;;;56.40;37.45;;;9.60;99.90;;;;;;4968749;28;20108;-78
2023/10/26 08:34:56;;;;;;;47.22;34.15;;;9.70;99.90;;;;;;4944009;28;20540;-77
2023/10/26 08:37:21;;;;;;;46.25;34.20;;;9.70;99.90;;;;;;4948283;28;20079;-78
2023/10/26 08:39:47;;;;;;;47.22;34.58;;;9.80;99.90;;;;;;4936729;28;20074;-78
2023/10/26 08:42:13;;;;;;;45.65;34.20;;;9.80;99.90;;;;;;4967635;28;20038;-78
2023/10/26 08:44:39;;;;;;;44.55;33.42;;;9.80;99.90;;;;;;4966442;28;20110;-78
2023/10/26 08:47:06;;;;;;;43.00;31.33;;;9.80;99.90;;;;;;4951600;28;20122;-78
2023/10/26 08:49:32;;;;;;;44.03;33.88;;;9.80;99.90;;;;;;4952089;28;20650;-78
2023/10/26 08:51:59;;;;;;;42.08;31.20;;;9.80;99.90;;;;;;4968708;28;20047;-78
2023/10/26 08:54:28;;;;;;;45.88;32.72;;;9.80;99.90;;;;;;4952006;28;20035;-78
2023/10/26 08:56:54;;;;;;;40.53;31.15;;;9.80;99.90;;;;;;4967534;28;20126;-78
2023/10/26 08:59:23;;;;;;;38.35;30.13;;;9.80;99.90;;;;;;4968622;28;20066;-78
2023/10/26 09:01:49;;;;;;;39.95;30.45;;;9.90;99.90;;;;;;4937258;28;20037;-78
2023/10/26 09:04:15;;;;;;;42.00;31.73;;;9.90;99.90;;;;;;4952368;28;20034;-77
2023/10/26 09:06:46;;;;;;;39.35;30.17;;;9.90;99.90;;;;;;4968102;28;20484;-77
2023/10/26 09:09:12;;;;;;;39.85;31.15;;;9.90;99.90;;;;;;4951900;28;20126;-78
2023/10/26 09:11:38;;;;;;;39.58;30.45;;;9.90;99.90;;;;;;4935482;28;20071;-78
2023/10/26 09:14:21;;;;;;;38.90;30.15;;;9.90;99.90;;;;;;4951384;28;20150;-78
2023/10/26 09:16:48;;;;;;;39.80;30.42;;;9.90;99.90;;;;;;4967208;28;20046;-78
2023/10/26 09:19:16;;;;;;;40.72;30.20;;;9.90;99.90;;;;;;4939673;28;20086;-82
2023/10/26 09:21:56;;;;;;;40.67;30.95;;;10.00;99.90;;;;;;4938597;28;20043;-79
2023/10/26 09:24:27;;;;;;;38.35;28.77;;;10.00;99.90;;;;;;4951784;28;20081;-79
2023/10/26 09:26:59;;;;;;;44.08;31.35;;;10.00;99.90;;;;;;4930105;28;20050;-78
2023/10/26 09:29:41;;;;;;;41.38;30.33;;;10.00;99.90;;;;;;4954907;28;20042;-78
2023/10/26 09:32:08;;;;;;;40.33;30.27;;;10.00;99.90;;;;;;4935203;28;20446;-78
2023/10/26 09:34:42;;;;;;;44.17;33.22;;;10.00;99.90;;;;;;4947887;28;20070;-79
2023/10/26 09:37:11;;;;;;;42.05;31.85;;;10.00;99.90;;;;;;4937866;28;20460;-78
2023/10/26 09:39:38;;;;;;;40.83;31.77;;;10.10;99.90;;;;;;4938308;28;20585;-78
2023/10/26 09:42:11;;;;;;;39.78;30.92;;;10.10;99.90;;;;;;4923847;28;20054;-78
2023/10/26 09:44:37;;;;;;;39.35;30.92;;;10.10;99.90;;;;;;4938654;28;20035;-78
2023/10/26 09:47:03;;;;;;;45.78;32.38;;;10.10;99.90;;;;;;4919965;28;20462;-78
2023/10/26 09:49:30;;;;;;;41.75;30.05;;;10.20;99.90;;;;;;4933740;28;20054;-78
2023/10/26 09:51:58;;;;;;;40.28;30.73;;;10.20;99.90;;;;;;4936633;28;20046;-78
2023/10/26 09:54:37;;;;;;;39.60;31.17;;;10.20;99.90;;;;;;4950184;28;21615;-78
2023/10/26 09:57:10;;;;;;;40.78;31.65;;;10.20;99.90;;;;;;4933610;28;20043;-78
2023/10/26 09:59:37;;;;;;;39.33;31.70;;;10.30;99.90;;;;;;4935905;28;20066;-78
2023/10/26 10:02:23;;;;;;;41.55;31.50;;;10.40;99.90;;;;;;4946922;28;20098;-79
2023/10/26 10:04:49;;;;;;;39.97;31.45;;;10.50;99.90;;;;;;4938261;28;20539;-78
2023/10/26 10:07:37;;;;;;;40.92;29.65;;;10.50;99.90;;;;;;4948189;28;20050;-78
2023/10/26 10:10:21;;;;;;;36.30;28.50;;;10.50;99.90;;;;;;4954428;28;20109;-78
2023/10/26 10:12:52;;;;;;;34.92;28.20;;;10.50;99.90;;;;;;4919382;28;20081;-77
2023/10/26 10:15:36;;;;;;;40.72;28.83;;;10.50;99.90;;;;;;4937633;28;21164;-76
2023/10/26 10:18:06;;;;;;;36.15;29.38;;;10.60;99.90;;;;;;4950709;28;20047;-76
2023/10/26 10:20:36;;;;;;;40.08;30.10;;;10.70;99.90;;;;;;4938861;28;20039;-76
2023/10/26 10:23:03;;;;;;;39.65;29.63;;;10.70;99.90;;;;;;4937348;28;20389;-76
2023/10/26 10:25:50;;;;;;;36.40;29.00;;;10.80;99.90;;;;;;4921008;28;20824;-76
2023/10/26 10:28:20;;;;;;;33.17;27.05;;;10.80;99.90;;;;;;4950788;28;20482;-75
2023/10/26 10:30:56;;;;;;;34.83;27.17;;;10.80;99.90;;;;;;4970390;28;20480;-76
2023/10/26 10:33:25;;;;;;;32.05;27.02;;;10.90;99.90;;;;;;4936310;28;20126;-74
2023/10/26 10:36:01;;;;;;;31.17;26.23;;;10.80;99.90;;;;;;4951089;28;20129;-75
2023/10/26 10:38:28;;;;;;;32.10;25.42;;;11.00;99.90;;;;;;4953378;28;20039;-75
2023/10/26 10:40:54;;;;;;;32.28;25.60;;;11.00;99.90;;;;;;4937932;28;20642;-74
2023/10/26 10:43:45;;;;;;;29.40;24.58;;;11.10;99.90;;;;;;4936896;28;20042;-74
2023/10/26 10:46:13;;;;;;;34.85;26.00;;;11.20;99.90;;;;;;4966033;28;20058;-75
2023/10/26 10:49:05;;;;;;;33.33;26.65;;;11.30;99.90;;;;;;4951666;28;20063;-74
2023/10/26 10:51:34;;;;;;;27.75;23.92;;;11.30;99.90;;;;;;4940962;28;20556;-74
2023/10/26 10:54:02;;;;;;;29.10;25.30;;;11.40;99.90;;;;;;4947888;28;20043;-75
2023/10/26 10:56:28;;;;;;;30.60;25.98;;;11.40;99.90;;;;;;4964523;28;20730;-74
2023/10/26 10:58:56;;;;;;;28.77;25.30;;;11.50;99.90;;;;;;4969789;28;20125;-74
2023/10/26 11:01:22;;;;;;;29.70;23.27;;;11.50;99.90;;;;;;4936482;28;20498;-75
2023/10/26 11:03:49;;;;;;;26.90;24.00;;;11.50;99.90;;;;;;4966515;28;20117;-74
2023/10/26 11:06:16;;;;;;;27.10;23.52;;;11.50;99.90;;;;;;4956464;28;20045;-74
2023/10/26 11:08:42;;;;;;;29.17;24.92;;;11.60;99.90;;;;;;4965071;28;20038;-74
2023/10/26 11:11:08;;;;;;;28.42;24.08;;;11.70;99.90;;;;;;4966991;28;20449;-74
2023/10/26 11:13:34;;;;;;;27.10;24.20;;;11.70;99.90;;;;;;4935448;28;20065;-74
2023/10/26 11:15:59;;;;;;;24.90;22.25;;;11.80;99.90;;;;;;4952425;28;20046;-74
2023/10/26 11:18:26;;;;;;;26.80;20.95;;;11.90;99.90;;;;;;4966677;28;20039;-74
2023/10/26 11:20:52;;;;;;;23.58;21.08;;;12.00;99.90;;;;;;4969603;28;20034;-74
2023/10/26 11:23:22;;;;;;;26.55;20.42;;;12.00;99.90;;;;;;4953654;28;20031;-74
2023/10/26 11:25:48;;;;;;;25.40;21.33;;;12.00;99.90;;;;;;4968654;28;20053;-74
2023/10/26 11:28:14;;;;;;;26.58;22.27;;;12.10;99.90;;;;;;4966480;28;20042;-75
2023/10/26 11:30:46;;;;;;;25.08;22.48;;;12.20;99.90;;;;;;4964940;28;20042;-75
2023/10/26 11:33:31;;;;;;;;;;;12.30;99.90;;;;;;4965224;28;20045;-75
2023/10/26 11:35:57;;;;;;;25.63;21.67;;;12.30;99.90;;;;;;4951702;28;20046;-75
2023/10/26 11:38:23;;;;;;;27.58;21.30;;;12.40;99.90;;;;;;4968415;28;20046;-75
2023/10/26 11:40:49;;;;;;;31.15;24.02;;;12.60;99.90;;;;;;4953880;28;20046;-75
2023/10/26 11:43:14;;;;;;;27.80;24.77;;;12.70;99.90;;;;;;4970022;28;20492;-74
2023/10/26 11:45:48;;;;;;;27.35;24.40;;;12.70;99.90;;;;;;4953623;28;20201;-74
2023/10/26 11:48:29;;;;;;;27.33;24.45;;;12.70;99.90;;;;;;4968528;28;20569;-74
2023/10/26 11:50:55;;;;;;;28.90;24.38;;;12.60;99.90;;;;;;4953372;28;20333;-74
2023/10/26 11:53:23;;;;;;;27.77;24.52;;;12.60;99.90;;;;;;4969845;28;20046;-75
2023/10/26 11:55:50;;;;;;;26.58;22.80;;;12.60;99.90;;;;;;4969238;28;20133;-75
2023/10/26 11:58:16;;;;;;;30.48;23.83;;;12.50;99.90;;;;;;4936821;28;20082;-74
2023/10/26 12:00:42;;;;;;;27.15;24.25;;;12.50;99.90;;;;;;4969154;28;20046;-74
2023/10/26 12:03:08;;;;;;;26.75;22.90;;;12.60;99.90;;;;;;4968167;28;20046;-74
2023/10/26 12:05:34;;;;;;;26.30;23.55;;;12.70;99.90;;;;;;4969439;28;20042;-75
2023/10/26 12:08:00;;;;;;;24.73;21.38;;;12.80;99.90;;;;;;4968784;28;20117;-74
2023/10/26 12:10:26;;;;;;;25.67;22.85;;;12.70;99.90;;;;;;4968449;28;20396;-74
2023/10/26 12:12:53;;;;;;;24.83;21.35;;;12.60;99.90;;;;;;4952240;28;20496;-74
2023/10/26 12:15:20;;;;;;;27.35;22.73;;;12.50;99.90;;;;;;4937088;28;20058;-74
2023/10/26 12:17:47;;;;;;;28.02;23.45;;;12.30;99.90;;;;;;4985338;28;20050;-75
2023/10/26 12:20:14;;;;;;;27.45;23.55;;;12.20;99.90;;;;;;4952297;28;20039;-74
2023/10/26 12:22:40;;;;;;;28.13;23.90;;;12.20;99.90;;;;;;4954384;28;20097;-74
2023/10/26 12:25:07;;;;;;;25.88;22.17;;;12.10;99.90;;;;;;4953089;28;20072;-74
2023/10/26 12:27:34;;;;;;;28.90;24.15;;;12.10;99.90;;;;;;4985853;28;20046;-74
2023/10/26 12:30:00;;;;;;;23.05;20.55;;;12.20;99.90;;;;;;4951922;28;20110;-74